sensor_id;sensor_type;location;lat;lon;timestamp;temperature;humidity
18297;DHT22;18066;52.106;5.534;2023-06-14T00:01:01;19.60;99.90
18297;DHT22;18066;52.106;5.534;2023-06-14T00:03:31;19.70;99.90
18297;DHT22;18066;52.106;5.534;2023-06-14T00:05:58;19.60;99.90
18297;DHT22;18066;52.106;5.534;2023-06-14T00:08:26;20.00;99.90
18297;DHT22;18066;52.106;5.534;2023-06-14T00:10:53;19.70;99.90
18297;DHT22;18066;52.106;5.534;2023-06-14T00:13:20;19.60;99.90
18297;DHT22;18066;52.106;5.534;2023-06-14T00:15:47;19.70;99.90
18297;DHT22;18066;52.106;5.534;2023-06-14T00:18:14;19.70;99.90
18297;DHT22;18066;52.106;5.534;2023-06-14T00:20:41;19.50;99.90
18297;DHT22;18066;52.106;5.534;2023-06-14T00:23:09;19.50;99.90
18297;DHT22;18066;52.106;5.534;2023-06-14T00:25:37;19.40;99.90
18297;DHT22;18066;52.106;5.534;2023-06-14T00:28:03;19.40;99.90
18297;DHT22;18066;52.106;5.534;2023-06-14T00:30:30;19.40;99.90
18297;DHT22;18066;52.106;5.534;2023-06-14T00:32:57;19.40;99.90
18297;DHT22;18066;52.106;5.534;2023-06-14T00:35:24;19.40;99.90
18297;DHT22;18066;52.106;5.534;2023-06-14T00:37:51;19.20;99.90
18297;DHT22;18066;52.106;5.534;2023-06-14T00:40:20;19.20;99.90
18297;DHT22;18066;52.106;5.534;2023-06-14T00:42:48;19.30;99.90
18297;DHT22;18066;52.106;5.534;2023-06-14T00:45:15;19.20;99.90
18297;DHT22;18066;52.106;5.534;2023-06-14T00:47:42;19.20;99.90
18297;DHT22;18066;52.106;5.534;2023-06-14T00:50:10;19.10;99.90
18297;DHT22;18066;52.106;5.534;2023-06-14T00:52:39;19.10;99.90
18297;DHT22;18066;52.106;5.534;2023-06-14T00:55:06;19.10;99.90
18297;DHT22;18066;52.106;5.534;2023-06-14T00:57:33;19.10;99.90
18297;DHT22;18066;52.106;5.534;2023-06-14T01:00:05;19.00;99.90
18297;DHT22;18066;52.106;5.534;2023-06-14T01:02:35;19.10;99.90
18297;DHT22;18066;52.106;5.534;2023-06-14T01:05:03;19.00;99.90
18297;DHT22;18066;52.106;5.534;2023-06-14T01:07:39;18.90;99.90
18297;DHT22;18066;52.106;5.534;2023-06-14T01:10:21;19.10;99.90
18297;DHT22;18066;52.106;5.534;2023-06-14T01:12:56;18.90;99.90
18297;DHT22;18066;52.106;5.534;2023-06-14T01:15:27;18.80;99.90
18297;DHT22;18066;52.106;5.534;2023-06-14T01:17:55;18.90;99.90
18297;DHT22;18066;52.106;5.534;2023-06-14T01:20:29;19.30;99.90
18297;DHT22;18066;52.106;5.534;2023-06-14T01:22:57;18.70;99.90
18297;DHT22;18066;52.106;5.534;2023-06-14T01:25:24;18.90;99.90
18297;DHT22;18066;52.106;5.534;2023-06-14T01:27:53;18.70;99.90
18297;DHT22;18066;52.106;5.534;2023-06-14T01:30:23;18.80;99.90
18297;DHT22;18066;52.106;5.534;2023-06-14T01:32:52;18.90;99.90
18297;DHT22;18066;52.106;5.534;2023-06-14T01:35:20;18.70;99.90
18297;DHT22;18066;52.106;5.534;2023-06-14T01:37:48;18.80;99.90
18297;DHT22;18066;52.106;5.534;2023-06-14T01:40:17;18.80;99.90
18297;DHT22;18066;52.106;5.534;2023-06-14T01:42:46;18.60;99.90
18297;DHT22;18066;52.106;5.534;2023-06-14T01:45:14;18.60;99.90
18297;DHT22;18066;52.106;5.534;2023-06-14T01:47:42;18.60;99.90
18297;DHT22;18066;52.106;5.534;2023-06-14T01:50:10;18.50;99.90
18297;DHT22;18066;52.106;5.534;2023-06-14T01:52:37;18.50;99.90
18297;DHT22;18066;52.106;5.534;2023-06-14T01:55:05;18.60;99.90
18297;DHT22;18066;52.106;5.534;2023-06-14T01:57:34;18.50;99.90
18297;DHT22;18066;52.106;5.534;2023-06-14T02:00:01;18.30;99.90
18297;DHT22;18066;52.106;5.534;2023-06-14T02:02:29;18.20;99.90
18297;DHT22;18066;52.106;5.534;2023-06-14T02:04:56;18.30;99.90
18297;DHT22;18066;52.106;5.534;2023-06-14T02:07:23;18.30;99.90
18297;DHT22;18066;52.106;5.534;2023-06-14T02:09:50;18.30;99.90
18297;DHT22;18066;52.106;5.534;2023-06-14T02:12:16;18.30;99.90
18297;DHT22;18066;52.106;5.534;2023-06-14T02:14:45;18.20;99.90
18297;DHT22;18066;52.106;5.534;2023-06-14T02:17:11;18.40;99.90
18297;DHT22;18066;52.106;5.534;2023-06-14T02:19:38;18.20;99.90
18297;DHT22;18066;52.106;5.534;2023-06-14T02:22:06;18.20;99.90
18297;DHT22;18066;52.106;5.534;2023-06-14T02:24:32;18.20;99.90
18297;DHT22;18066;52.106;5.534;2023-06-14T02:26:59;18.20;99.90
18297;DHT22;18066;52.106;5.534;2023-06-14T02:29:26;18.20;99.90
18297;DHT22;18066;52.106;5.534;2023-06-14T02:31:54;18.50;99.90
18297;DHT22;18066;52.106;5.534;2023-06-14T02:34:21;18.10;99.90
18297;DHT22;18066;52.106;5.534;2023-06-14T02:36:48;18.70;99.90
18297;DHT22;18066;52.106;5.534;2023-06-14T02:39:15;18.00;99.90
18297;DHT22;18066;52.106;5.534;2023-06-14T02:41:43;18.00;99.90
18297;DHT22;18066;52.106;5.534;2023-06-14T02:44:10;17.90;99.90
18297;DHT22;18066;52.106;5.534;2023-06-14T02:46:38;17.90;99.90
18297;DHT22;18066;52.106;5.534;2023-06-14T02:49:06;18.00;99.90
18297;DHT22;18066;52.106;5.534;2023-06-14T02:51:33;18.10;99.90
18297;DHT22;18066;52.106;5.534;2023-06-14T02:53:59;18.00;99.90
18297;DHT22;18066;52.106;5.534;2023-06-14T02:56:26;17.80;99.90
18297;DHT22;18066;52.106;5.534;2023-06-14T02:58:53;17.90;99.90
18297;DHT22;18066;52.106;5.534;2023-06-14T03:01:20;17.80;99.90
18297;DHT22;18066;52.106;5.534;2023-06-14T03:03:48;17.80;99.90
18297;DHT22;18066;52.106;5.534;2023-06-14T03:06:16;17.70;99.90
18297;DHT22;18066;52.106;5.534;2023-06-14T03:08:44;18.20;99.90
18297;DHT22;18066;52.106;5.534;2023-06-14T03:11:11;17.70;99.90
18297;DHT22;18066;52.106;5.534;2023-06-14T03:13:38;17.60;99.90
18297;DHT22;18066;52.106;5.534;2023-06-14T03:16:06;17.40;99.90
18297;DHT22;18066;52.106;5.534;2023-06-14T03:18:34;17.60;99.90
18297;DHT22;18066;52.106;5.534;2023-06-14T03:21:02;17.60;99.90
18297;DHT22;18066;52.106;5.534;2023-06-14T03:23:30;17.50;99.90
18297;DHT22;18066;52.106;5.534;2023-06-14T03:25:57;17.40;99.90
18297;DHT22;18066;52.106;5.534;2023-06-14T03:28:24;17.40;99.90
18297;DHT22;18066;52.106;5.534;2023-06-14T03:30:51;17.40;99.90
18297;DHT22;18066;52.106;5.534;2023-06-14T03:33:18;17.40;99.90
18297;DHT22;18066;52.106;5.534;2023-06-14T03:35:45;17.70;99.90
18297;DHT22;18066;52.106;5.534;2023-06-14T03:38:12;17.30;99.90
18297;DHT22;18066;52.106;5.534;2023-06-14T03:40:40;17.20;99.90
18297;DHT22;18066;52.106;5.534;2023-06-14T03:43:07;17.20;99.90
18297;DHT22;18066;52.106;5.534;2023-06-14T03:45:34;17.20;99.90
18297;DHT22;18066;52.106;5.534;2023-06-14T03:48:00;17.30;99.90
18297;DHT22;18066;52.106;5.534;2023-06-14T03:50:28;17.20;99.90
18297;DHT22;18066;52.106;5.534;2023-06-14T03:52:55;17.20;99.90
18297;DHT22;18066;52.106;5.534;2023-06-14T03:55:22;17.20;99.90
18297;DHT22;18066;52.106;5.534;2023-06-14T03:57:52;17.20;99.90
18297;DHT22;18066;52.106;5.534;2023-06-14T04:00:18;17.20;99.90
18297;DHT22;18066;52.106;5.534;2023-06-14T04:02:45;17.30;99.90
18297;DHT22;18066;52.106;5.534;2023-06-14T04:05:13;17.30;99.90
18297;DHT22;18066;52.106;5.534;2023-06-14T04:07:41;17.30;99.90
18297;DHT22;18066;52.106;5.534;2023-06-14T04:10:11;17.40;99.90
18297;DHT22;18066;52.106;5.534;2023-06-14T04:12:38;17.40;99.90
18297;DHT22;18066;52.106;5.534;2023-06-14T04:15:08;17.30;99.90
18297;DHT22;18066;52.106;5.534;2023-06-14T04:17:36;17.40;99.90
18297;DHT22;18066;52.106;5.534;2023-06-14T04:20:04;17.90;99.90
18297;DHT22;18066;52.106;5.534;2023-06-14T04:22:34;17.50;99.90
18297;DHT22;18066;52.106;5.534;2023-06-14T04:25:02;17.70;99.90
18297;DHT22;18066;52.106;5.534;2023-06-14T04:27:29;17.60;99.90
18297;DHT22;18066;52.106;5.534;2023-06-14T04:30:01;18.00;99.90
18297;DHT22;18066;52.106;5.534;2023-06-14T04:32:30;17.70;99.90
18297;DHT22;18066;52.106;5.534;2023-06-14T04:34:59;17.60;99.90
18297;DHT22;18066;52.106;5.534;2023-06-14T04:37:27;17.60;99.90
18297;DHT22;18066;52.106;5.534;2023-06-14T04:39:54;17.60;99.90
18297;DHT22;18066;52.106;5.534;2023-06-14T04:42:22;17.60;99.90
18297;DHT22;18066;52.106;5.534;2023-06-14T04:44:51;17.60;99.90
18297;DHT22;18066;52.106;5.534;2023-06-14T04:47:21;17.60;99.90
18297;DHT22;18066;52.106;5.534;2023-06-14T04:49:51;17.70;99.90
18297;DHT22;18066;52.106;5.534;2023-06-14T04:52:19;17.80;99.90
18297;DHT22;18066;52.106;5.534;2023-06-14T04:54:47;17.80;99.90
18297;DHT22;18066;52.106;5.534;2023-06-14T04:57:14;17.80;99.90
18297;DHT22;18066;52.106;5.534;2023-06-14T04:59:42;17.80;99.90
18297;DHT22;18066;52.106;5.534;2023-06-14T05:02:10;17.90;99.90
18297;DHT22;18066;52.106;5.534;2023-06-14T05:04:38;18.10;99.90
18297;DHT22;18066;52.106;5.534;2023-06-14T05:07:07;17.90;99.90
18297;DHT22;18066;52.106;5.534;2023-06-14T05:09:34;17.80;99.90
18297;DHT22;18066;52.106;5.534;2023-06-14T05:12:01;18.00;99.90
18297;DHT22;18066;52.106;5.534;2023-06-14T05:14:28;18.10;99.90
18297;DHT22;18066;52.106;5.534;2023-06-14T05:16:55;18.30;99.90
18297;DHT22;18066;52.106;5.534;2023-06-14T05:19:22;18.30;99.90
18297;DHT22;18066;52.106;5.534;2023-06-14T05:21:49;18.40;99.90
18297;DHT22;18066;52.106;5.534;2023-06-14T05:24:17;18.50;99.90
18297;DHT22;18066;52.106;5.534;2023-06-14T05:26:44;18.60;99.90
18297;DHT22;18066;52.106;5.534;2023-06-14T05:29:11;18.70;99.90
18297;DHT22;18066;52.106;5.534;2023-06-14T05:31:38;18.70;99.90
18297;DHT22;18066;52.106;5.534;2023-06-14T05:34:05;18.80;99.90
18297;DHT22;18066;52.106;5.534;2023-06-14T05:36:32;18.90;99.90
18297;DHT22;18066;52.106;5.534;2023-06-14T05:38:59;19.00;99.90
18297;DHT22;18066;52.106;5.534;2023-06-14T05:41:29;19.20;99.90
18297;DHT22;18066;52.106;5.534;2023-06-14T05:43:56;19.30;99.90
18297;DHT22;18066;52.106;5.534;2023-06-14T05:46:23;19.40;99.90
18297;DHT22;18066;52.106;5.534;2023-06-14T05:48:51;19.50;99.90
18297;DHT22;18066;52.106;5.534;2023-06-14T05:51:18;19.50;99.90
18297;DHT22;18066;52.106;5.534;2023-06-14T05:53:45;19.40;99.90
18297;DHT22;18066;52.106;5.534;2023-06-14T05:56:12;19.40;99.90
18297;DHT22;18066;52.106;5.534;2023-06-14T05:58:41;19.70;99.90
18297;DHT22;18066;52.106;5.534;2023-06-14T06:01:07;19.80;99.90
18297;DHT22;18066;52.106;5.534;2023-06-14T06:03:34;19.80;99.90
18297;DHT22;18066;52.106;5.534;2023-06-14T06:06:01;19.90;99.90
18297;DHT22;18066;52.106;5.534;2023-06-14T06:08:28;20.10;99.90
18297;DHT22;18066;52.106;5.534;2023-06-14T06:10:55;20.20;99.90
18297;DHT22;18066;52.106;5.534;2023-06-14T06:13:22;20.20;99.90
18297;DHT22;18066;52.106;5.534;2023-06-14T06:15:50;20.40;99.90
18297;DHT22;18066;52.106;5.534;2023-06-14T06:18:17;20.60;99.90
18297;DHT22;18066;52.106;5.534;2023-06-14T06:20:44;20.70;99.90
18297;DHT22;18066;52.106;5.534;2023-06-14T06:23:12;21.10;99.90
18297;DHT22;18066;52.106;5.534;2023-06-14T06:25:39;20.80;99.90
18297;DHT22;18066;52.106;5.534;2023-06-14T06:28:06;20.90;99.90
18297;DHT22;18066;52.106;5.534;2023-06-14T06:30:33;21.40;99.90
18297;DHT22;18066;52.106;5.534;2023-06-14T06:33:02;21.00;99.90
18297;DHT22;18066;52.106;5.534;2023-06-14T06:35:29;21.10;99.90
18297;DHT22;18066;52.106;5.534;2023-06-14T06:37:58;21.10;99.90
18297;DHT22;18066;52.106;5.534;2023-06-14T06:40:25;21.10;99.90
18297;DHT22;18066;52.106;5.534;2023-06-14T06:42:52;21.30;99.90
18297;DHT22;18066;52.106;5.534;2023-06-14T06:45:19;21.30;99.90
18297;DHT22;18066;52.106;5.534;2023-06-14T06:47:46;21.50;99.90
18297;DHT22;18066;52.106;5.534;2023-06-14T06:50:14;21.90;99.90
18297;DHT22;18066;52.106;5.534;2023-06-14T06:52:41;21.50;99.90
18297;DHT22;18066;52.106;5.534;2023-06-14T06:55:08;21.80;99.90
18297;DHT22;18066;52.106;5.534;2023-06-14T06:57:36;21.70;99.90
18297;DHT22;18066;52.106;5.534;2023-06-14T07:00:04;21.70;99.90
18297;DHT22;18066;52.106;5.534;2023-06-14T07:02:33;21.80;99.90
18297;DHT22;18066;52.106;5.534;2023-06-14T07:05:00;22.10;99.90
18297;DHT22;18066;52.106;5.534;2023-06-14T07:07:28;22.50;99.90
18297;DHT22;18066;52.106;5.534;2023-06-14T07:09:55;22.50;99.90
18297;DHT22;18066;52.106;5.534;2023-06-14T07:12:22;22.90;99.90
18297;DHT22;18066;52.106;5.534;2023-06-14T07:14:49;22.60;99.90
18297;DHT22;18066;52.106;5.534;2023-06-14T07:17:16;22.80;99.90
18297;DHT22;18066;52.106;5.534;2023-06-14T07:19:43;22.90;99.90
18297;DHT22;18066;52.106;5.534;2023-06-14T07:22:10;22.80;99.90
18297;DHT22;18066;52.106;5.534;2023-06-14T07:24:38;23.20;99.90
18297;DHT22;18066;52.106;5.534;2023-06-14T07:27:06;23.00;99.90
18297;DHT22;18066;52.106;5.534;2023-06-14T07:29:33;23.00;99.90
18297;DHT22;18066;52.106;5.534;2023-06-14T07:32:00;23.20;99.90
18297;DHT22;18066;52.106;5.534;2023-06-14T07:34:27;23.50;99.90
18297;DHT22;18066;52.106;5.534;2023-06-14T07:36:53;23.20;99.90
18297;DHT22;18066;52.106;5.534;2023-06-14T07:39:22;23.90;99.90
18297;DHT22;18066;52.106;5.534;2023-06-14T07:41:50;23.50;99.90
18297;DHT22;18066;52.106;5.534;2023-06-14T07:44:17;23.90;99.90
18297;DHT22;18066;52.106;5.534;2023-06-14T07:46:43;24.10;99.90
18297;DHT22;18066;52.106;5.534;2023-06-14T07:49:11;24.40;99.90
18297;DHT22;18066;52.106;5.534;2023-06-14T07:51:38;24.30;99.90
18297;DHT22;18066;52.106;5.534;2023-06-14T07:54:05;24.30;99.90
18297;DHT22;18066;52.106;5.534;2023-06-14T07:56:34;24.20;99.90
18297;DHT22;18066;52.106;5.534;2023-06-14T07:59:02;24.40;99.90
18297;DHT22;18066;52.106;5.534;2023-06-14T08:01:29;24.10;99.90
18297;DHT22;18066;52.106;5.534;2023-06-14T08:03:56;24.00;99.90
18297;DHT22;18066;52.106;5.534;2023-06-14T08:06:22;24.10;99.90
18297;DHT22;18066;52.106;5.534;2023-06-14T08:08:49;23.90;99.90
18297;DHT22;18066;52.106;5.534;2023-06-14T08:11:16;24.20;99.90
18297;DHT22;18066;52.106;5.534;2023-06-14T08:13:43;24.60;99.90
18297;DHT22;18066;52.106;5.534;2023-06-14T08:16:11;24.40;99.90
18297;DHT22;18066;52.106;5.534;2023-06-14T08:18:38;25.00;99.90
18297;DHT22;18066;52.106;5.534;2023-06-14T08:21:04;24.90;99.90
18297;DHT22;18066;52.106;5.534;2023-06-14T08:23:32;25.10;99.90
18297;DHT22;18066;52.106;5.534;2023-06-14T08:25:59;25.10;99.90
18297;DHT22;18066;52.106;5.534;2023-06-14T08:28:27;24.80;99.90
18297;DHT22;18066;52.106;5.534;2023-06-14T08:30:53;25.00;99.90
18297;DHT22;18066;52.106;5.534;2023-06-14T08:33:22;24.80;99.90
18297;DHT22;18066;52.106;5.534;2023-06-14T08:35:49;25.10;99.90
18297;DHT22;18066;52.106;5.534;2023-06-14T08:38:15;24.90;99.90
18297;DHT22;18066;52.106;5.534;2023-06-14T08:40:42;25.90;99.90
18297;DHT22;18066;52.106;5.534;2023-06-14T08:43:10;25.80;99.90
18297;DHT22;18066;52.106;5.534;2023-06-14T08:45:37;26.20;99.90
18297;DHT22;18066;52.106;5.534;2023-06-14T08:48:04;26.10;99.90
18297;DHT22;18066;52.106;5.534;2023-06-14T08:50:34;26.20;99.90
18297;DHT22;18066;52.106;5.534;2023-06-14T08:53:02;25.80;99.90
18297;DHT22;18066;52.106;5.534;2023-06-14T08:55:31;26.60;99.90
18297;DHT22;18066;52.106;5.534;2023-06-14T08:57:58;25.90;99.90
18297;DHT22;18066;52.106;5.534;2023-06-14T09:00:26;25.80;99.90
18297;DHT22;18066;52.106;5.534;2023-06-14T09:02:53;26.60;99.90
18297;DHT22;18066;52.106;5.534;2023-06-14T09:05:23;25.50;99.90
18297;DHT22;18066;52.106;5.534;2023-06-14T09:07:54;26.20;99.90
18297;DHT22;18066;52.106;5.534;2023-06-14T09:10:22;25.80;99.90
18297;DHT22;18066;52.106;5.534;2023-06-14T09:12:51;26.40;99.90
18297;DHT22;18066;52.106;5.534;2023-06-14T09:15:18;25.80;99.90
18297;DHT22;18066;52.106;5.534;2023-06-14T09:17:45;25.40;99.90
18297;DHT22;18066;52.106;5.534;2023-06-14T09:20:12;26.10;99.90
18297;DHT22;18066;52.106;5.534;2023-06-14T09:22:43;26.00;99.90
18297;DHT22;18066;52.106;5.534;2023-06-14T09:25:11;26.20;99.90
18297;DHT22;18066;52.106;5.534;2023-06-14T09:27:41;26.40;99.90
18297;DHT22;18066;52.106;5.534;2023-06-14T09:30:09;26.60;99.90
18297;DHT22;18066;52.106;5.534;2023-06-14T09:32:37;26.60;99.90
18297;DHT22;18066;52.106;5.534;2023-06-14T09:35:06;27.50;99.90
18297;DHT22;18066;52.106;5.534;2023-06-14T09:37:33;26.90;99.90
18297;DHT22;18066;52.106;5.534;2023-06-14T09:40:01;27.60;99.90
18297;DHT22;18066;52.106;5.534;2023-06-14T09:42:31;26.50;99.90
18297;DHT22;18066;52.106;5.534;2023-06-14T09:45:02;27.50;99.90
18297;DHT22;18066;52.106;5.534;2023-06-14T09:47:29;27.40;99.90
18297;DHT22;18066;52.106;5.534;2023-06-14T09:49:56;25.60;99.90
18297;DHT22;18066;52.106;5.534;2023-06-14T09:52:23;27.00;99.90
18297;DHT22;18066;52.106;5.534;2023-06-14T09:54:52;27.20;99.90
18297;DHT22;18066;52.106;5.534;2023-06-14T09:57:22;26.00;99.90
18297;DHT22;18066;52.106;5.534;2023-06-14T09:59:57;26.90;99.90
18297;DHT22;18066;52.106;5.534;2023-06-14T10:02:26;26.50;99.90
18297;DHT22;18066;52.106;5.534;2023-06-14T10:05:01;26.60;99.90
18297;DHT22;18066;52.106;5.534;2023-06-14T10:07:35;28.00;99.90
18297;DHT22;18066;52.106;5.534;2023-06-14T10:10:06;27.90;99.90
18297;DHT22;18066;52.106;5.534;2023-06-14T10:12:33;26.90;99.90
18297;DHT22;18066;52.106;5.534;2023-06-14T10:15:02;27.30;99.90
18297;DHT22;18066;52.106;5.534;2023-06-14T10:17:35;26.90;99.90
18297;DHT22;18066;52.106;5.534;2023-06-14T10:20:14;26.80;99.90
18297;DHT22;18066;52.106;5.534;2023-06-14T10:22:49;26.90;99.90
18297;DHT22;18066;52.106;5.534;2023-06-14T10:25:27;26.70;98.40
18297;DHT22;18066;52.106;5.534;2023-06-14T10:28:03;26.30;97.90
18297;DHT22;18066;52.106;5.534;2023-06-14T10:30:32;26.50;98.80
18297;DHT22;18066;52.106;5.534;2023-06-14T10:33:05;26.50;99.90
18297;DHT22;18066;52.106;5.534;2023-06-14T10:35:32;27.00;99.90
18297;DHT22;18066;52.106;5.534;2023-06-14T10:38:09;27.10;99.90
18297;DHT22;18066;52.106;5.534;2023-06-14T10:40:36;27.50;99.90
18297;DHT22;18066;52.106;5.534;2023-06-14T10:43:22;27.60;99.40
18297;DHT22;18066;52.106;5.534;2023-06-14T10:46:16;27.60;98.60
18297;DHT22;18066;52.106;5.534;2023-06-14T10:48:43;27.40;98.10
18297;DHT22;18066;52.106;5.534;2023-06-14T10:51:17;27.40;98.70
18297;DHT22;18066;52.106;5.534;2023-06-14T10:53:47;27.10;99.70
18297;DHT22;18066;52.106;5.534;2023-06-14T10:56:27;27.10;99.20
18297;DHT22;18066;52.106;5.534;2023-06-14T10:58:55;26.60;97.00
18297;DHT22;18066;52.106;5.534;2023-06-14T11:01:32;26.40;98.70
18297;DHT22;18066;52.106;5.534;2023-06-14T11:04:11;26.70;98.20
18297;DHT22;18066;52.106;5.534;2023-06-14T11:06:46;26.50;96.40
18297;DHT22;18066;52.106;5.534;2023-06-14T11:12:09;26.20;98.50
18297;DHT22;18066;52.106;5.534;2023-06-14T11:14:37;26.20;98.50
18297;DHT22;18066;52.106;5.534;2023-06-14T11:17:06;26.70;97.50
18297;DHT22;18066;52.106;5.534;2023-06-14T11:19:33;26.50;98.50
18297;DHT22;18066;52.106;5.534;2023-06-14T11:22:00;26.80;99.90
18297;DHT22;18066;52.106;5.534;2023-06-14T11:24:26;27.20;99.90
18297;DHT22;18066;52.106;5.534;2023-06-14T11:26:55;27.40;99.60
18297;DHT22;18066;52.106;5.534;2023-06-14T11:29:23;26.90;99.70
18297;DHT22;18066;52.106;5.534;2023-06-14T11:31:50;26.90;98.50
18297;DHT22;18066;52.106;5.534;2023-06-14T11:34:18;26.80;99.90
18297;DHT22;18066;52.106;5.534;2023-06-14T11:36:46;27.00;99.90
18297;DHT22;18066;52.106;5.534;2023-06-14T11:39:13;27.40;99.90
18297;DHT22;18066;52.106;5.534;2023-06-14T11:41:41;27.60;99.90
18297;DHT22;18066;52.106;5.534;2023-06-14T11:44:08;27.80;99.90
18297;DHT22;18066;52.106;5.534;2023-06-14T11:46:36;27.80;99.90
18297;DHT22;18066;52.106;5.534;2023-06-14T11:49:03;27.60;99.90
18297;DHT22;18066;52.106;5.534;2023-06-14T11:51:34;28.00;99.90
18297;DHT22;18066;52.106;5.534;2023-06-14T11:54:02;27.90;98.20
18297;DHT22;18066;52.106;5.534;2023-06-14T11:56:29;27.80;97.10
18297;DHT22;18066;52.106;5.534;2023-06-14T11:58:57;27.90;99.70
18297;DHT22;18066;52.106;5.534;2023-06-14T12:01:24;28.20;99.00
18297;DHT22;18066;52.106;5.534;2023-06-14T12:03:54;27.90;99.90
18297;DHT22;18066;52.106;5.534;2023-06-14T12:06:26;28.00;98.30
18297;DHT22;18066;52.106;5.534;2023-06-14T12:08:57;27.70;99.20
18297;DHT22;18066;52.106;5.534;2023-06-14T12:11:24;27.60;97.70
18297;DHT22;18066;52.106;5.534;2023-06-14T12:13:54;27.60;98.30
18297;DHT22;18066;52.106;5.534;2023-06-14T12:16:30;27.80;98.70
18297;DHT22;18066;52.106;5.534;2023-06-14T12:19:00;27.70;98.40
18297;DHT22;18066;52.106;5.534;2023-06-14T12:21:27;27.70;97.40
18297;DHT22;18066;52.106;5.534;2023-06-14T12:23:54;27.50;95.90
18297;DHT22;18066;52.106;5.534;2023-06-14T12:26:25;27.40;97.30
18297;DHT22;18066;52.106;5.534;2023-06-14T12:28:53;27.70;99.10
18297;DHT22;18066;52.106;5.534;2023-06-14T12:31:20;27.80;98.40
18297;DHT22;18066;52.106;5.534;2023-06-14T12:33:47;27.60;96.90
18297;DHT22;18066;52.106;5.534;2023-06-14T12:36:15;27.50;98.70
18297;DHT22;18066;52.106;5.534;2023-06-14T12:38:42;27.70;95.20
18297;DHT22;18066;52.106;5.534;2023-06-14T12:41:09;27.40;99.40
18297;DHT22;18066;52.106;5.534;2023-06-14T12:43:37;27.70;97.40
18297;DHT22;18066;52.106;5.534;2023-06-14T12:46:04;28.40;95.50
18297;DHT22;18066;52.106;5.534;2023-06-14T12:48:31;27.90;96.70
18297;DHT22;18066;52.106;5.534;2023-06-14T12:50:59;28.10;96.50
18297;DHT22;18066;52.106;5.534;2023-06-14T12:53:26;28.10;96.30
18297;DHT22;18066;52.106;5.534;2023-06-14T12:55:53;27.40;95.80
18297;DHT22;18066;52.106;5.534;2023-06-14T12:58:20;27.70;97.00
18297;DHT22;18066;52.106;5.534;2023-06-14T13:00:48;27.10;97.30
18297;DHT22;18066;52.106;5.534;2023-06-14T13:03:15;27.50;98.40
18297;DHT22;18066;52.106;5.534;2023-06-14T13:05:42;28.40;97.50
18297;DHT22;18066;52.106;5.534;2023-06-14T13:08:09;27.10;97.60
18297;DHT22;18066;52.106;5.534;2023-06-14T13:10:35;27.30;98.30
18297;DHT22;18066;52.106;5.534;2023-06-14T13:13:02;27.80;97.40
18297;DHT22;18066;52.106;5.534;2023-06-14T13:15:29;28.50;96.80
18297;DHT22;18066;52.106;5.534;2023-06-14T13:17:57;28.00;96.50
18297;DHT22;18066;52.106;5.534;2023-06-14T13:20:24;28.10;96.70
18297;DHT22;18066;52.106;5.534;2023-06-14T13:22:51;27.90;97.60
18297;DHT22;18066;52.106;5.534;2023-06-14T13:25:18;27.80;97.40
18297;DHT22;18066;52.106;5.534;2023-06-14T13:27:45;27.70;95.60
18297;DHT22;18066;52.106;5.534;2023-06-14T13:30:12;27.50;96.40
18297;DHT22;18066;52.106;5.534;2023-06-14T13:32:39;27.60;98.60
18297;DHT22;18066;52.106;5.534;2023-06-14T13:35:07;28.10;97.20
18297;DHT22;18066;52.106;5.534;2023-06-14T13:37:34;28.00;96.10
18297;DHT22;18066;52.106;5.534;2023-06-14T13:40:01;27.90;96.40
18297;DHT22;18066;52.106;5.534;2023-06-14T13:42:28;28.00;96.20
18297;DHT22;18066;52.106;5.534;2023-06-14T13:44:56;28.60;96.30
18297;DHT22;18066;52.106;5.534;2023-06-14T13:47:23;28.20;97.80
18297;DHT22;18066;52.106;5.534;2023-06-14T13:49:50;28.50;98.70
18297;DHT22;18066;52.106;5.534;2023-06-14T13:52:19;29.70;96.50
18297;DHT22;18066;52.106;5.534;2023-06-14T13:54:48;30.90;99.80
18297;DHT22;18066;52.106;5.534;2023-06-14T13:57:15;29.10;96.90
18297;DHT22;18066;52.106;5.534;2023-06-14T13:59:43;29.10;98.00
18297;DHT22;18066;52.106;5.534;2023-06-14T14:02:11;29.30;97.20
18297;DHT22;18066;52.106;5.534;2023-06-14T14:04:38;29.50;96.70
18297;DHT22;18066;52.106;5.534;2023-06-14T14:07:08;29.50;95.20
18297;DHT22;18066;52.106;5.534;2023-06-14T14:09:37;30.00;95.90
18297;DHT22;18066;52.106;5.534;2023-06-14T14:12:06;30.20;97.70
18297;DHT22;18066;52.106;5.534;2023-06-14T14:14:32;30.30;94.00
18297;DHT22;18066;52.106;5.534;2023-06-14T18:53:37;25.10;77.90
18297;DHT22;18066;52.106;5.534;2023-06-14T18:56:04;25.30;81.70
18297;DHT22;18066;52.106;5.534;2023-06-14T18:58:31;24.80;80.90
18297;DHT22;18066;52.106;5.534;2023-06-14T19:00:57;24.90;82.70
18297;DHT22;18066;52.106;5.534;2023-06-14T19:03:24;24.60;82.00
18297;DHT22;18066;52.106;5.534;2023-06-14T19:05:51;24.80;82.00
18297;DHT22;18066;52.106;5.534;2023-06-14T19:08:21;25.10;84.30
18297;DHT22;18066;52.106;5.534;2023-06-14T19:10:49;24.50;84.40
18297;DHT22;18066;52.106;5.534;2023-06-14T19:13:16;24.40;85.30
18297;DHT22;18066;52.106;5.534;2023-06-14T19:15:42;24.20;85.80
18297;DHT22;18066;52.106;5.534;2023-06-14T19:18:09;24.50;88.60
18297;DHT22;18066;52.106;5.534;2023-06-14T19:20:36;24.00;88.50
18297;DHT22;18066;52.106;5.534;2023-06-14T19:23:03;24.20;90.00
18297;DHT22;18066;52.106;5.534;2023-06-14T19:25:30;23.90;91.30
18297;DHT22;18066;52.106;5.534;2023-06-14T19:27:58;24.00;94.60
18297;DHT22;18066;52.106;5.534;2023-06-14T19:30:26;24.20;95.30
18297;DHT22;18066;52.106;5.534;2023-06-14T19:32:52;24.00;95.50
18297;DHT22;18066;52.106;5.534;2023-06-14T19:35:19;24.00;95.80
18297;DHT22;18066;52.106;5.534;2023-06-14T19:37:47;24.20;96.40
18297;DHT22;18066;52.106;5.534;2023-06-14T19:40:14;24.60;96.60
18297;DHT22;18066;52.106;5.534;2023-06-14T19:42:41;24.10;96.30
18297;DHT22;18066;52.106;5.534;2023-06-14T19:45:09;23.80;96.10
18297;DHT22;18066;52.106;5.534;2023-06-14T19:47:37;23.80;96.10
18297;DHT22;18066;52.106;5.534;2023-06-14T19:50:05;23.80;96.30
18297;DHT22;18066;52.106;5.534;2023-06-14T19:52:33;23.60;96.40
18297;DHT22;18066;52.106;5.534;2023-06-14T19:55:00;23.80;96.80
18297;DHT22;18066;52.106;5.534;2023-06-14T19:57:27;23.40;97.10
18297;DHT22;18066;52.106;5.534;2023-06-14T19:59:54;23.60;97.40
18297;DHT22;18066;52.106;5.534;2023-06-14T20:02:22;23.40;97.60
18297;DHT22;18066;52.106;5.534;2023-06-14T20:04:49;23.30;98.00
18297;DHT22;18066;52.106;5.534;2023-06-14T20:07:16;23.60;98.50
18297;DHT22;18066;52.106;5.534;2023-06-14T20:09:42;23.20;98.60
18297;DHT22;18066;52.106;5.534;2023-06-14T20:12:09;23.40;98.70
18297;DHT22;18066;52.106;5.534;2023-06-14T20:14:37;23.00;99.10